Flight Track Log - Related Links

Times and Time Zones

All times are in EDT time to prevent confusion due to time zone crossing. See the FLG4262 flight status page for this flight to view local times or setup timezone preferences in your user account.

Time Position Orientation Groundspeed Altitude Reporting Facility
EDT Latitude Longitude Course Direction KTS MPH feet Rate Location/Type
Sun 05:44:48 PM 42.2539 -76.0908 286° West 176 203 5,500  Level New York Center
Sun 05:45:48 PM 42.2792 -76.1769 292° West 209 241 7,800 2,200 Climbing New York Center
Sun 05:46:00 PM 42.2240 -76.4906 287° West  Level Estimated
Sun 05:46:48 PM 42.3042 -76.2689 290° West 246 283 9,900  Level New York Center
Sun 05:47:00 PM 42.2275 -76.6184 294° West  Level Estimated
Sun 05:48:00 PM 42.2309 -76.7462 289° West  Level Estimated
Sun 05:48:24 PM 42.3539 -76.4375 292° West 305 351 12,600  Level Cleveland Center
Sun 05:49:00 PM 42.2898 -76.8464 309° West  Level FlightAware Approximate
Sun 05:49:26 PM 42.3828 -76.5492 289° West 314 361 13,900  Level Cleveland Center
Sun 05:50:29 PM 42.4153 -76.6642 291° West 328 377 15,400 1,488 Climbing Cleveland Center
Sun 05:51:31 PM 42.4461 -76.7792 290° West 326 375 17,000 1,403 Climbing Cleveland Center
Sun 05:52:33 PM 42.4758 -76.8944 289° West 326 375 18,300 1,113 Climbing Cleveland Center
Sun 05:53:35 PM 42.5092 -77.0133 291° West 334 384 19,300 1,065 Climbing Cleveland Center
Sun 05:54:37 PM 42.5475 -77.1592 290° West 341 392 20,500 1,065 Climbing Cleveland Center
Sun 05:55:39 PM 42.5794 -77.2819 289° West 344 396 21,500 968 Climbing Cleveland Center
Sun 05:56:41 PM 42.6131 -77.4086 290° West 352 405 22,500 968 Climbing Cleveland Center
Sun 05:57:43 PM 42.6447 -77.5314 289° West 350 403 23,500 726 Climbing Cleveland Center
Sun 05:58:45 PM 42.6592 -77.6664 278° West 362 417 24,000 242 Climbing Cleveland Center
Sun 05:59:47 PM 42.6675 -77.8256 274° West 384 442 24,000  Level Cleveland Center
Sun 06:00:49 PM 42.6750 -77.9725 274° West 391 450 24,000  Level Cleveland Center
Sun 06:01:51 PM 42.6817 -78.1203 274° West 395 455 24,000  Level Cleveland Center
Sun 06:02:53 PM 42.6908 -78.3003 274° West 399 459 24,000  Level Cleveland Center
Sun 06:03:56 PM 42.6967 -78.4511 273° West 400 460 24,000  Level Cleveland Center
Sun 06:04:58 PM 42.7050 -78.6039 274° West 406 467 24,000  Level Cleveland Center
Sun 06:06:00 PM 42.7114 -78.7544 273° West 400 460 24,000  Level Cleveland Center
Sun 06:07:02 PM 42.7178 -78.9067 273° West 404 465 24,000  Level Cleveland Center
Sun 06:08:04 PM 42.7239 -79.0592 273° West 402 463 24,000  Level Cleveland Center
Sun 06:09:06 PM 42.7308 -79.2431 273° West 406 467 24,000  Level Cleveland Center
Sun 06:10:08 PM 42.7361 -79.3958 273° West 406 467 24,000  Level Cleveland Center
Sun 06:11:10 PM 42.7417 -79.5508 273° West 410 472 24,000  Level Cleveland Center
Sun 06:12:12 PM 42.7464 -79.7039 272° West 407 468 24,000  Level Cleveland Center
Sun 06:13:14 PM 42.7506 -79.8594 272° West 412 474 24,000  Level Cleveland Center
Sun 06:14:16 PM 42.7428 -80.0369 267° West 417 480 24,000  Level Cleveland Center
Sun 06:15:18 PM 42.7361 -80.1947 267° West 417 480 24,000  Level Cleveland Center
Sun 06:16:20 PM 42.7294 -80.3519 267° West 416 479 24,000  Level Cleveland Center
Sun 06:17:22 PM 42.7217 -80.5103 266° West 415 478 24,000  Level Cleveland Center
Sun 06:18:25 PM 42.7150 -80.6686 267° West 417 480 24,000  Level Cleveland Center
Sun 06:19:27 PM 42.7078 -80.8567 267° West 426 490 24,000  Level Cleveland Center
Sun 06:20:29 PM 42.6914 -81.0122 262° West 418 481 24,000  Level Cleveland Center
Sun 06:21:31 PM 42.6728 -81.1719 261° West 422 486 24,000  Level Cleveland Center
Sun 06:22:33 PM 42.6553 -81.3303 262° West 422 486 24,000  Level Cleveland Center
Sun 06:23:35 PM 42.6358 -81.4883 261° West 423 487 24,000 -823 Level Cleveland Center
Sun 06:24:37 PM 42.6183 -81.6447 261° West 419 482 22,300 -1,500 Descending Cleveland Center
Sun 06:25:39 PM 42.6006 -81.7911 261° West 367 422 20,900 -1,248 Descending Cleveland Center
Sun 06:26:42 PM 42.5861 -81.9083 261° West 326 375 19,700 -1,210 Descending Cleveland Center
Sun 06:27:43 PM 42.5725 -82.0144 260° West 295 339 18,400 -1,171 Descending Cleveland Center
Sun 06:28:45 PM 42.5606 -82.1147 261° West 274 315 17,300 -1,452 Descending Cleveland Center
Sun 06:29:47 PM 42.5486 -82.2275 262° West 257 296 15,400 -1,597 Descending Cleveland Center
Sun 06:30:49 PM 42.5994 -82.2969 315° West 264 304 14,000 -677 Descending Cleveland Center
Sun 06:31:51 PM 42.6533 -82.2361 40° Northeast 294 338 14,000 -97 Level Cleveland Center
Sun 06:32:53 PM 42.5903 -82.1603 138° Southeast 333 383 13,800 -667 Descending Cleveland Center
Sun 06:33:48 PM 42.5289 -82.2436 225° Southwest 298 343 12,700 -1,065 Descending Cleveland Center
Sun 06:33:55 PM 42.5267 -82.2347 109° East 313 360 12,700 -1,000 Level Cleveland Center
Sun 06:34:12 PM 42.5242 -82.2828 266° West 285 328 12,300 -667 Descending Cleveland Center
Sun 06:34:58 PM 42.5197 -82.3439 264° West 293 337 12,000 -295 Descending Cleveland Center
Sun 06:35:13 PM 42.5186 -82.3922 268° West 290 334 12,000  Level Cleveland Center
Sun 06:36:00 PM 42.5111 -82.4756 263° West 292 336 12,000  Level Cleveland Center
Sun 06:36:14 PM 42.5103 -82.5100 268° West 294 338 12,000  Level Cleveland Center
Sun 06:37:02 PM 42.4931 -82.5828 252° West 299 344 12,000  Level Cleveland Center
Sun 06:37:16 PM 42.4839 -82.6169 250° West 302 348 12,000  Level Cleveland Center
Sun 06:38:04 PM 42.4575 -82.6839 242° Southwest 301 346 12,000  Level Cleveland Center
Sun 06:38:17 PM 42.4503 -82.7086 248° West 254 292 12,000  Level Cleveland Center
Sun 06:39:06 PM 42.4272 -82.7675 242° Southwest 258 297 12,000  Level Cleveland Center
Sun 06:39:18 PM 42.4192 -82.7922 246° West 242 278 12,000  Level Cleveland Center
Sun 06:40:08 PM 42.3992 -82.8453 243° Southwest 237 273 12,000  Level Cleveland Center
Sun 06:40:20 PM 42.3900 -82.8761 248° West 226 260 12,000  Level Cleveland Center
Sun 06:41:10 PM 42.3719 -82.9214 242° Southwest 229 264 12,000  Level Cleveland Center
Sun 06:41:21 PM 42.3633 -82.9514 249° West 228 262 12,000  Level Cleveland Center
Sun 06:42:12 PM 42.3392 -83.0136 242° Southwest 227 261 12,000  Level Cleveland Center
Sun 06:42:22 PM 42.3344 -83.0294 248° West 228 262 12,000  Level Cleveland Center
Sun 06:43:23 PM 42.3303 -83.1136 266° West 215 247 12,000  Level Cleveland Center
Sun 06:44:16 PM 42.3250 -83.1744 263° West 221 254 12,000  Level Cleveland Center
Sun 06:44:25 PM 42.3119 -83.1900 221° Southwest 239 275 12,000 -581 Level Cleveland Center
Sun 06:45:18 PM 42.2653 -83.2122 199° South 237 273 11,400 -787 Descending Cleveland Center
Sun 06:45:26 PM 42.2506 -83.2239 210° Southwest 239 275 11,200 -968 Descending Cleveland Center
Sun 06:46:20 PM 42.2033 -83.2456 199° South 239 275 10,400 -1,082 Descending Cleveland Center
Sun 06:46:27 PM 42.1897 -83.2550 207° Southwest 233 268 10,100 -1,500 Descending Cleveland Center
Sun 06:47:28 PM 42.1244 -83.2853 199° South 237 273 8,700 -1,179 Descending Cleveland Center
Sun 06:48:24 PM 42.0686 -83.3075 196° South 235 270 7,800 -1,082 Descending Cleveland Center
Sun 06:48:29 PM 42.0636 -83.3133 221° Southwest 227 261 7,600 -716 Descending Cleveland Center
Sun 06:49:31 PM 42.0031 -83.3386 197° South 217 250 7,000 -700 Descending Cleveland Center
Sun 06:50:29 PM 41.9542 -83.3586 197° South 216 249 6,200 -984 Descending Cleveland Center
Sun 06:50:32 PM 41.9486 -83.3644 218° Southwest 211 243 6,000 -1,548 Descending Cleveland Center
Sun 06:51:31 PM 41.9500 -83.4278 272° West 211 243 4,600 -1,377 Descending Cleveland Center
Sun 06:51:33 PM 41.9533 -83.4356 300° West 211 243 4,600 -290 Level Cleveland Center
Sun 06:52:33 PM 42.0067 -83.4514 348° North 194 223 4,300 -344 Descending Cleveland Center
Sun 06:53:35 PM 42.0508 -83.4503 North 188 216 3,900 -629 Descending Cleveland Center
Sun 06:54:37 PM 42.0931 -83.4250 24° Northeast 172 198 3,000 -942 Descending Cleveland Center
Sun 06:55:36 PM 42.1414 -83.3917 27° Northeast 155 178 2,000 -968 Descending Cleveland Center
Sun 06:55:39 PM 42.1411 -83.3900 103° East 168 193 2,000 -885 Level Cleveland Center
Sun 06:56:37 PM 42.1769 -83.3658 27° Northeast 139 160 1,100 -871 Descending Cleveland Center
Sun 06:56:41 PM 42.1753 -83.3644 148° Southeast 155 178 1,100 -273 Level Cleveland Center
Sun 06:57:43 PM 42.2078 -83.3422 27° Northeast 149 171 800 -290 Descending Cleveland Center

Login

Don't have an account? Register now (free) for customized features, flight alerts, and more!